createdAt,value
2019-03-30T00:00:59.799Z,48.70
2019-03-30T00:03:28.198Z,48.00
2019-03-30T00:05:56.663Z,48.57
2019-03-30T00:08:25.141Z,46.00
2019-03-30T00:10:53.642Z,46.33
2019-03-30T00:13:22.108Z,43.73
2019-03-30T00:15:50.330Z,46.30
2019-03-30T00:18:18.547Z,47.17
2019-03-30T00:20:46.754Z,43.50
2019-03-30T00:23:15.021Z,46.10
2019-03-30T00:25:43.490Z,45.27
2019-03-30T00:28:11.988Z,42.40
2019-03-30T00:30:40.442Z,43.43
2019-03-30T00:33:08.930Z,45.10
2019-03-30T00:35:38.693Z,42.00
2019-03-30T00:38:06.917Z,45.60
2019-03-30T00:40:36.341Z,48.37
2019-03-30T00:43:04.908Z,45.60
2019-03-30T00:45:33.383Z,47.77
2019-03-30T00:48:01.875Z,47.63
2019-03-30T00:50:30.088Z,45.90
2019-03-30T00:52:58.331Z,47.13
2019-03-30T00:55:28.059Z,48.33
2019-03-30T00:57:56.316Z,47.17
2019-03-30T01:00:24.529Z,48.03
2019-03-30T01:02:52.778Z,50.13
2019-03-30T01:05:21.487Z,50.90
2019-03-30T01:07:50.285Z,49.00
2019-03-30T01:10:18.723Z,49.83
2019-03-30T01:12:47.196Z,51.67
2019-03-30T01:15:15.758Z,51.80
2019-03-30T01:17:44.147Z,51.87
2019-03-30T01:20:12.369Z,48.97
2019-03-30T01:22:40.600Z,47.20
2019-03-30T01:25:09.084Z,43.37
2019-03-30T01:27:37.579Z,42.87
2019-03-30T01:30:06.283Z,40.73
2019-03-30T01:32:35.206Z,44.00
2019-03-30T01:35:06.799Z,42.77
2019-03-30T01:37:35.093Z,42.83
2019-03-30T01:40:04.689Z,43.33
2019-03-30T01:42:33.059Z,42.87
2019-03-30T01:45:01.553Z,44.13
2019-03-30T01:47:30.705Z,41.70
2019-03-30T01:49:59.276Z,39.80
2019-03-30T01:52:27.478Z,43.83
2019-03-30T01:54:56.006Z,42.43
2019-03-30T01:57:25.729Z,39.63
2019-03-30T01:59:53.996Z,41.60
2019-03-30T02:02:25.080Z,41.77
2019-03-30T02:04:53.493Z,43.90
2019-03-30T02:07:21.984Z,44.97
2019-03-30T02:09:50.185Z,43.20
2019-03-30T02:12:21.592Z,43.43
2019-03-30T02:14:49.508Z,41.37
2019-03-30T02:17:20.117Z,43.60
2019-03-30T02:19:48.471Z,43.53
2019-03-30T02:22:17.043Z,42.27
2019-03-30T02:24:45.435Z,42.70
2019-03-30T02:27:13.908Z,46.10
2019-03-30T02:29:42.407Z,48.07
2019-03-30T02:32:10.879Z,48.30
2019-03-30T02:34:39.381Z,47.90
2019-03-30T02:37:07.853Z,48.53
2019-03-30T02:39:36.339Z,50.17
2019-03-30T02:42:05.126Z,48.20
2019-03-30T02:44:33.342Z,50.10
2019-03-30T02:47:01.790Z,49.93
2019-03-30T02:49:30.249Z,47.83
2019-03-30T02:51:58.751Z,43.83
2019-03-30T02:54:26.963Z,42.30
2019-03-30T02:56:55.181Z,44.53
2019-03-30T02:59:23.680Z,54.30
2019-03-30T03:01:52.139Z,57.50
2019-03-30T03:04:20.646Z,60.00
2019-03-30T03:06:49.107Z,60.70
2019-03-30T03:09:17.594Z,60.37
2019-03-30T03:11:46.085Z,57.77
2019-03-30T03:14:15.821Z,58.03
2019-03-30T03:16:44.041Z,56.37
2019-03-30T03:19:12.247Z,58.50
2019-03-30T03:21:40.528Z,58.03
2019-03-30T03:24:09.001Z,56.37
2019-03-30T03:26:38.217Z,57.87
2019-03-30T03:29:07.235Z,56.93
2019-03-30T03:31:36.202Z,58.40
2019-03-30T03:34:04.475Z,57.57
2019-03-30T03:36:34.311Z,59.03
2019-03-30T03:39:02.539Z,61.40
2019-03-30T03:41:30.916Z,58.03
2019-03-30T03:43:59.425Z,57.40
2019-03-30T03:46:28.950Z,56.43
2019-03-30T03:48:57.389Z,60.00
2019-03-30T03:51:26.793Z,58.53
2019-03-30T03:53:55.093Z,62.07
2019-03-30T03:56:23.371Z,61.57
2019-03-30T03:58:51.831Z,60.00
2019-03-30T04:01:20.599Z,63.90
2019-03-30T04:03:48.821Z,66.80
2019-03-30T04:06:17.019Z,67.07
2019-03-30T04:08:45.519Z,67.67
2019-03-30T04:11:13.962Z,65.33
2019-03-30T04:13:42.215Z,63.57
2019-03-30T04:16:10.695Z,63.87
2019-03-30T04:18:38.919Z,63.90
2019-03-30T04:21:07.151Z,64.53
2019-03-30T04:23:35.635Z,61.83
2019-03-30T04:26:04.096Z,59.10
2019-03-30T04:28:32.945Z,59.53
2019-03-30T04:31:01.179Z,56.93
2019-03-30T04:33:29.544Z,62.37
2019-03-30T04:35:58.036Z,59.17
2019-03-30T04:38:26.238Z,55.97
2019-03-30T04:40:54.508Z,52.70
2019-03-30T04:43:22.961Z,60.60
2019-03-30T04:45:52.803Z,59.57
2019-03-30T04:48:21.020Z,62.80
2019-03-30T04:50:49.419Z,65.10
2019-03-30T04:53:17.936Z,66.03
2019-03-30T04:55:46.637Z,63.60
2019-03-30T04:58:14.880Z,66.50
2019-03-30T05:00:43.347Z,68.37
2019-03-30T05:03:11.854Z,65.13
2019-03-30T05:05:43.084Z,65.70
2019-03-30T05:08:11.984Z,59.83
2019-03-30T05:10:40.345Z,63.03
2019-03-30T05:13:08.840Z,63.07
2019-03-30T05:15:37.301Z,63.93
2019-03-30T05:18:05.803Z,62.50
2019-03-30T05:20:34.272Z,64.10
2019-03-30T05:23:02.765Z,65.67
2019-03-30T05:25:31.240Z,65.10
2019-03-30T05:27:59.726Z,64.27
2019-03-30T05:30:28.194Z,65.73
2019-03-30T05:33:05.624Z,64.93
2019-03-30T05:35:26.691Z,65.90
2019-03-30T05:37:55.189Z,65.17
2019-03-30T05:40:23.652Z,57.17
2019-03-30T05:42:52.155Z,53.17
2019-03-30T05:45:22.303Z,54.57
2019-03-30T05:47:50.650Z,56.60
2019-03-30T05:50:19.142Z,58.87
2019-03-30T05:52:47.621Z,58.67
2019-03-30T05:55:15.897Z,62.33
2019-03-30T05:57:44.118Z,56.37
2019-03-30T06:00:15.195Z,57.07
2019-03-30T06:02:43.590Z,57.43
2019-03-30T06:05:12.056Z,54.47
2019-03-30T06:07:40.551Z,69.40
2019-03-30T06:10:09.014Z,72.90
2019-03-30T06:12:37.507Z,73.37
2019-03-30T06:15:07.464Z,74.13
2019-03-30T06:17:36.014Z,69.80
2019-03-30T06:20:05.817Z,66.17
2019-03-30T06:22:40.124Z,61.37
2019-03-30T06:25:04.003Z,60.67
2019-03-30T06:27:32.499Z,58.43
2019-03-30T06:30:21.374Z,58.50
2019-03-30T06:32:49.934Z,54.30
2019-03-30T06:35:18.412Z,57.37
2019-03-30T06:37:46.907Z,54.67
2019-03-30T06:40:15.369Z,56.40
2019-03-30T06:42:43.876Z,54.60
2019-03-30T06:45:12.340Z,53.73
2019-03-30T06:47:40.852Z,54.30
2019-03-30T06:50:09.041Z,52.90
2019-03-30T06:52:37.318Z,54.37
2019-03-30T06:55:07.143Z,54.60
2019-03-30T06:57:35.353Z,53.23
2019-03-30T07:00:04.580Z,54.43
2019-03-30T07:02:32.785Z,50.63
2019-03-30T07:05:01.220Z,53.87
2019-03-30T07:07:29.932Z,53.27
2019-03-30T07:09:58.732Z,55.43
2019-03-30T07:12:26.947Z,47.90
2019-03-30T07:14:56.785Z,53.27
2019-03-30T07:17:25.163Z,54.27
2019-03-30T07:19:54.103Z,53.47
2019-03-30T07:22:22.633Z,55.30
2019-03-30T07:24:51.110Z,56.87
2019-03-30T07:27:19.610Z,56.27
2019-03-30T07:29:48.061Z,53.67
2019-03-30T07:32:16.555Z,51.80
2019-03-30T07:34:44.774Z,54.40
2019-03-30T07:37:13.563Z,60.87
2019-03-30T07:39:42.013Z,61.20
2019-03-30T07:42:10.478Z,60.83
2019-03-30T07:44:39.039Z,62.70
2019-03-30T07:47:07.434Z,57.57
2019-03-30T07:49:35.942Z,59.97
2019-03-30T07:52:04.424Z,61.40
2019-03-30T07:54:33.064Z,61.03
2019-03-30T07:57:05.536Z,57.60
2019-03-30T07:59:31.642Z,56.37
2019-03-30T08:01:59.859Z,57.80
2019-03-30T08:04:29.963Z,58.93
2019-03-30T08:06:58.363Z,56.37
2019-03-30T08:09:27.112Z,54.40
2019-03-30T08:11:56.330Z,55.43
2019-03-30T08:14:24.833Z,60.77
2019-03-30T08:16:53.314Z,52.03
2019-03-30T08:19:22.053Z,55.50
2019-03-30T08:21:50.274Z,58.57
2019-03-30T08:24:18.762Z,48.43
2019-03-30T08:26:47.127Z,54.60
2019-03-30T08:29:17.354Z,48.77
2019-03-30T08:31:45.565Z,44.47
2019-03-30T08:34:13.788Z,54.70
2019-03-30T08:36:41.999Z,52.63
2019-03-30T08:39:10.225Z,53.80
2019-03-30T08:41:38.436Z,50.10
2019-03-30T08:44:06.650Z,54.27
2019-03-30T08:46:35.322Z,47.30
2019-03-30T08:49:03.527Z,54.37
2019-03-30T08:51:31.743Z,52.67
2019-03-30T08:54:00.023Z,51.63
2019-03-30T08:56:28.808Z,51.03
2019-03-30T08:58:58.676Z,51.10
2019-03-30T09:01:26.899Z,50.37
2019-03-30T09:03:55.109Z,51.73
2019-03-30T09:06:24.968Z,47.63
2019-03-30T09:08:53.178Z,47.83
2019-03-30T09:11:21.391Z,49.00
2019-03-30T09:13:49.607Z,50.50
2019-03-30T09:16:17.817Z,43.63
2019-03-30T09:18:46.118Z,48.23
2019-03-30T09:21:14.324Z,45.43
2019-03-30T09:23:42.556Z,46.83
2019-03-30T09:26:10.762Z,48.13
2019-03-30T09:28:38.985Z,45.23
2019-03-30T09:31:07.190Z,43.93
2019-03-30T09:33:37.036Z,45.93
2019-03-30T09:36:05.247Z,44.67
2019-03-30T09:38:33.454Z,42.73
2019-03-30T09:41:01.663Z,43.67
2019-03-30T09:43:29.883Z,43.73
2019-03-30T09:45:58.085Z,40.33
2019-03-30T09:48:26.307Z,42.20
2019-03-30T09:50:54.517Z,42.90
2019-03-30T09:53:24.365Z,41.00
2019-03-30T09:55:52.562Z,42.70
2019-03-30T09:58:20.783Z,38.33
2019-03-30T10:00:48.999Z,40.70
2019-03-30T10:03:17.215Z,39.83
2019-03-30T10:05:45.428Z,41.43
2019-03-30T10:08:14.096Z,40.00
2019-03-30T10:10:43.054Z,39.67
2019-03-30T10:13:11.250Z,40.00
2019-03-30T10:15:39.471Z,41.27
2019-03-30T10:18:07.681Z,40.43
2019-03-30T10:20:35.898Z,38.60
2019-03-30T10:23:04.109Z,40.23
2019-03-30T10:25:33.957Z,40.77
2019-03-30T10:28:02.278Z,38.90
2019-03-30T10:30:30.483Z,39.10
2019-03-30T10:32:58.691Z,38.70
2019-03-30T10:35:26.896Z,41.73
2019-03-30T10:37:55.115Z,40.60
2019-03-30T10:40:23.323Z,40.03
2019-03-30T10:42:51.548Z,39.70
2019-03-30T10:45:19.758Z,41.63
2019-03-30T10:47:47.970Z,42.10
2019-03-30T10:50:16.197Z,40.77
2019-03-30T10:52:44.403Z,39.20
2019-03-30T10:55:12.606Z,39.03
2019-03-30T10:57:40.827Z,38.20
2019-03-30T11:00:09.667Z,40.00
2019-03-30T11:02:39.018Z,37.47
2019-03-30T11:05:07.509Z,38.13
2019-03-30T11:07:35.724Z,37.67
2019-03-30T11:10:06.176Z,37.57
2019-03-30T11:12:34.382Z,38.63
2019-03-30T11:15:02.603Z,37.03
2019-03-30T11:17:30.816Z,37.80
2019-03-30T11:19:59.038Z,37.37
2019-03-30T11:22:27.255Z,38.77
2019-03-30T11:25:06.536Z,37.23
2019-03-30T11:27:25.401Z,39.20
2019-03-30T11:29:53.622Z,37.80
2019-03-30T11:32:24.802Z,41.03
2019-03-30T11:34:53.009Z,40.57
2019-03-30T11:37:21.224Z,37.60
2019-03-30T11:39:49.438Z,36.17
2019-03-30T11:42:17.654Z,33.60
2019-03-30T11:44:46.444Z,38.73
2019-03-30T11:47:14.639Z,37.67
2019-03-30T11:49:42.851Z,37.40
2019-03-30T11:52:11.054Z,38.30
2019-03-30T11:54:39.276Z,34.73
2019-03-30T11:57:07.481Z,37.43
2019-03-30T11:59:35.689Z,36.90
2019-03-30T12:02:03.911Z,36.60
2019-03-30T12:04:32.107Z,36.97
2019-03-30T12:07:00.316Z,35.83
2019-03-30T12:09:28.543Z,37.07
2019-03-30T12:11:56.755Z,36.37
2019-03-30T12:14:24.959Z,46.03
2019-03-30T12:16:53.177Z,38.83
2019-03-30T12:19:21.389Z,38.13
2019-03-30T12:21:49.590Z,36.17
2019-03-30T12:24:17.822Z,39.90
2019-03-30T12:26:46.034Z,36.80
2019-03-30T12:29:14.242Z,37.40
2019-03-30T12:31:42.460Z,37.03
2019-03-30T12:34:13.075Z,40.00
2019-03-30T12:36:40.606Z,42.00
2019-03-30T12:39:08.818Z,43.50
2019-03-30T12:41:37.052Z,37.90
2019-03-30T12:44:05.272Z,38.73
2019-03-30T12:46:33.483Z,40.43
2019-03-30T12:49:01.702Z,38.63
2019-03-30T12:51:29.919Z,39.00
2019-03-30T12:53:59.768Z,36.43
2019-03-30T12:56:28.052Z,38.83
2019-03-30T12:58:56.270Z,37.53
2019-03-30T13:01:24.482Z,39.67
2019-03-30T13:03:52.715Z,39.50
2019-03-30T13:06:20.932Z,36.07
2019-03-30T13:08:49.147Z,36.43
2019-03-30T13:11:17.370Z,37.70
2019-03-30T13:13:45.583Z,37.00
2019-03-30T13:16:13.812Z,36.53
2019-03-30T13:18:42.019Z,37.23
2019-03-30T13:21:10.222Z,33.40
2019-03-30T13:23:38.443Z,33.97
2019-03-30T13:26:06.647Z,33.13
2019-03-30T13:28:34.886Z,32.57
2019-03-30T13:31:03.100Z,32.17
2019-03-30T13:33:31.321Z,33.00
2019-03-30T13:35:59.534Z,30.77
2019-03-30T13:38:27.740Z,31.17
2019-03-30T13:40:55.967Z,30.83
2019-03-30T13:43:24.171Z,29.95
2019-03-30T13:45:52.434Z,31.33
2019-03-30T13:48:20.597Z,30.80
2019-03-30T13:50:48.809Z,32.83
2019-03-30T13:53:17.030Z,32.63
2019-03-30T13:55:45.244Z,29.67
2019-03-30T13:58:13.464Z,31.60
2019-03-30T14:00:41.673Z,27.63
2019-03-30T14:03:09.902Z,27.30
2019-03-30T14:05:38.115Z,29.87
2019-03-30T14:08:06.329Z,29.93
2019-03-30T14:10:34.622Z,29.93
2019-03-30T14:13:02.810Z,30.87
2019-03-30T14:15:31.042Z,28.90
2019-03-30T14:17:59.252Z,30.90
2019-03-30T14:20:27.479Z,30.33
2019-03-30T14:22:55.676Z,30.83
2019-03-30T14:25:23.888Z,28.47
2019-03-30T14:27:52.098Z,28.67
2019-03-30T14:30:20.553Z,27.60
2019-03-30T14:32:48.787Z,29.77
2019-03-30T14:35:16.984Z,25.83
2019-03-30T14:37:45.185Z,27.17
2019-03-30T14:40:13.404Z,25.92
2019-03-30T14:42:43.017Z,26.77
2019-03-30T14:45:11.238Z,27.27
2019-03-30T14:47:39.455Z,26.10
2019-03-30T14:50:08.332Z,26.77
2019-03-30T14:52:36.695Z,27.20
2019-03-30T14:55:07.134Z,27.13
2019-03-30T14:57:35.359Z,26.73
2019-03-30T15:00:04.034Z,27.23
2019-03-30T15:02:32.253Z,28.10
2019-03-30T15:05:01.122Z,28.43
2019-03-30T15:07:29.759Z,30.65
2019-03-30T15:09:57.968Z,29.23
2019-03-30T15:12:26.659Z,30.50
2019-03-30T15:14:54.856Z,31.83
2019-03-30T15:17:23.083Z,31.00
2019-03-30T15:19:51.285Z,31.63
2019-03-30T15:22:19.502Z,30.50
2019-03-30T15:24:47.719Z,33.07
2019-03-30T15:27:15.943Z,32.23
2019-03-30T15:29:45.673Z,29.40
2019-03-30T15:32:13.935Z,31.03
2019-03-30T15:34:42.160Z,32.13
2019-03-30T15:37:10.370Z,30.17
2019-03-30T15:39:38.758Z,30.50
2019-03-30T15:42:06.973Z,31.10
2019-03-30T15:44:35.944Z,31.83
2019-03-30T15:47:04.225Z,30.93
2019-03-30T15:49:32.454Z,32.63
2019-03-30T15:52:13.436Z,29.57
2019-03-30T15:54:31.251Z,33.33
2019-03-30T15:57:13.299Z,30.77
2019-03-30T15:59:29.389Z,32.48
2019-03-30T16:01:57.615Z,33.40
2019-03-30T16:04:25.824Z,35.43
2019-03-30T16:06:54.051Z,33.63
2019-03-30T16:09:22.264Z,30.73
2019-03-30T16:11:50.478Z,33.70
2019-03-30T16:14:18.691Z,32.53
2019-03-30T16:16:46.897Z,33.23
2019-03-30T16:19:15.934Z,29.43
2019-03-30T16:21:44.131Z,33.48
2019-03-30T16:24:12.353Z,34.00
2019-03-30T16:26:42.459Z,34.10
2019-03-30T16:29:10.821Z,36.77
2019-03-30T16:31:39.034Z,34.83
2019-03-30T16:34:07.260Z,37.10
2019-03-30T16:36:35.540Z,35.27
2019-03-30T16:39:05.050Z,36.00
2019-03-30T16:41:33.258Z,36.47
2019-03-30T16:44:01.465Z,34.30
2019-03-30T16:46:29.682Z,38.03
2019-03-30T16:48:57.886Z,37.73
2019-03-30T16:51:26.108Z,38.00
2019-03-30T16:53:54.319Z,38.47
2019-03-30T16:56:22.539Z,35.60
2019-03-30T16:58:50.748Z,40.30
2019-03-30T17:01:18.967Z,40.80
2019-03-30T17:03:47.172Z,40.60
2019-03-30T17:06:15.406Z,36.53
2019-03-30T17:08:43.617Z,40.33
2019-03-30T17:11:11.840Z,43.70
2019-03-30T17:13:41.674Z,42.37
2019-03-30T17:16:09.888Z,44.50
2019-03-30T17:18:38.094Z,50.57
2019-03-30T17:21:06.323Z,52.83
2019-03-30T17:23:34.531Z,58.13
2019-03-30T17:26:03.912Z,55.77
2019-03-30T17:28:32.146Z,59.23
2019-03-30T17:31:00.359Z,61.63
2019-03-30T17:33:28.585Z,58.73
2019-03-30T17:35:56.796Z,62.87
2019-03-30T17:38:25.093Z,61.00
2019-03-30T17:40:53.300Z,58.63
2019-03-30T17:43:21.531Z,64.67
2019-03-30T17:45:49.736Z,61.07
2019-03-30T17:48:17.971Z,60.00
2019-03-30T17:50:46.252Z,57.97
2019-03-30T17:53:14.473Z,56.23
2019-03-30T17:55:42.703Z,58.53
2019-03-30T17:58:13.309Z,58.73
2019-03-30T18:00:40.877Z,57.43
2019-03-30T18:03:09.657Z,55.50
2019-03-30T18:05:37.894Z,56.97
2019-03-30T18:08:06.113Z,54.33
2019-03-30T18:10:34.336Z,57.53
2019-03-30T18:13:02.638Z,56.10
2019-03-30T18:15:34.728Z,56.47
2019-03-30T18:18:02.083Z,53.93
2019-03-30T18:20:30.299Z,56.47
2019-03-30T18:23:01.799Z,53.33
2019-03-30T18:25:30.003Z,53.60
2019-03-30T18:27:58.239Z,58.17
2019-03-30T18:30:36.910Z,50.57
2019-03-30T18:33:06.755Z,51.90
2019-03-30T18:35:34.968Z,50.20
2019-03-30T18:38:03.464Z,51.37
2019-03-30T18:40:32.708Z,48.13
2019-03-30T18:43:03.324Z,46.57
2019-03-30T18:45:31.502Z,48.07
2019-03-30T18:48:12.364Z,49.50
2019-03-30T18:50:41.381Z,45.97
2019-03-30T18:53:10.678Z,47.80
2019-03-30T18:55:38.864Z,45.43
2019-03-30T18:58:07.717Z,50.17
2019-03-30T19:00:37.959Z,49.50
2019-03-30T19:03:06.248Z,48.80
2019-03-30T19:05:34.456Z,48.57
2019-03-30T19:08:03.271Z,48.23
2019-03-30T19:10:31.716Z,46.77
2019-03-30T19:12:59.915Z,47.10
2019-03-30T19:15:28.130Z,50.13
2019-03-30T19:17:56.408Z,50.17
2019-03-30T19:20:24.629Z,51.17
2019-03-30T19:22:52.831Z,52.33
2019-03-30T19:25:22.062Z,50.00
2019-03-30T19:27:50.262Z,50.67
2019-03-30T19:30:20.379Z,51.47
2019-03-30T19:32:48.583Z,51.83
2019-03-30T19:35:16.807Z,50.73
2019-03-30T19:37:45.022Z,53.83
2019-03-30T19:40:13.251Z,52.93
2019-03-30T19:42:41.922Z,48.13
2019-03-30T19:45:10.195Z,50.27
2019-03-30T19:47:38.422Z,54.93
2019-03-30T19:50:06.626Z,52.63
2019-03-30T19:52:40.125Z,51.73
2019-03-30T19:55:06.017Z,52.93
2019-03-30T19:57:34.244Z,54.80
2019-03-30T20:00:02.452Z,53.77
2019-03-30T20:02:30.686Z,55.93
2019-03-30T20:05:00.482Z,51.10
2019-03-30T20:07:28.657Z,54.23
2019-03-30T20:09:57.134Z,52.53
2019-03-30T20:12:25.416Z,54.87
2019-03-30T20:14:53.734Z,53.10
2019-03-30T20:17:21.945Z,54.17
2019-03-30T20:19:50.153Z,51.53
2019-03-30T20:22:19.454Z,52.30
2019-03-30T20:24:49.140Z,52.00
2019-03-30T20:27:17.363Z,51.53
2019-03-30T20:29:45.567Z,52.23
2019-03-30T20:32:14.931Z,51.20
2019-03-30T20:34:43.137Z,49.93
2019-03-30T20:37:12.471Z,50.87
2019-03-30T20:39:40.693Z,48.93
2019-03-30T20:42:08.907Z,49.57
2019-03-30T20:44:37.131Z,50.73
2019-03-30T20:47:05.338Z,46.97
2019-03-30T20:49:34.018Z,48.93
2019-03-30T20:52:02.231Z,50.37
2019-03-30T20:54:30.450Z,49.90
2019-03-30T20:56:59.676Z,47.17
2019-03-30T20:59:39.327Z,48.40
2019-03-30T21:01:57.824Z,48.50
2019-03-30T21:04:26.113Z,50.47
2019-03-30T21:06:54.329Z,49.53
2019-03-30T21:09:22.546Z,50.53
2019-03-30T21:11:50.753Z,49.43
2019-03-30T21:14:19.037Z,49.27
2019-03-30T21:16:47.267Z,48.83
2019-03-30T21:19:15.480Z,48.83
2019-03-30T21:21:43.935Z,49.37
2019-03-30T21:24:12.157Z,49.70
2019-03-30T21:26:40.363Z,45.87
2019-03-30T21:29:08.590Z,45.07
2019-03-30T21:31:36.805Z,43.30
2019-03-30T21:34:05.015Z,43.87
2019-03-30T21:36:33.221Z,40.17
2019-03-30T21:39:01.448Z,39.27
2019-03-30T21:41:29.648Z,36.60
2019-03-30T21:43:57.836Z,34.83
2019-03-30T21:46:26.132Z,32.20
2019-03-30T21:48:56.007Z,35.07
2019-03-30T21:51:24.299Z,31.77
2019-03-30T21:53:52.502Z,29.90
2019-03-30T21:56:20.723Z,30.90
2019-03-30T21:58:48.933Z,30.20
2019-03-30T22:01:17.142Z,29.80
2019-03-30T22:03:45.350Z,31.50
2019-03-30T22:06:13.577Z,29.90
2019-03-30T22:08:41.777Z,28.47
2019-03-30T22:11:11.462Z,27.10
2019-03-30T22:13:39.668Z,25.63
2019-03-30T22:16:08.323Z,24.07
2019-03-30T22:18:36.534Z,24.83
2019-03-30T22:21:04.975Z,25.17
2019-03-30T22:23:33.184Z,25.00
2019-03-30T22:26:03.091Z,26.00
2019-03-30T22:28:31.312Z,23.67
2019-03-30T22:31:00.443Z,22.30
2019-03-30T22:33:30.798Z,21.73
2019-03-30T22:35:58.610Z,23.07
2019-03-30T22:38:26.827Z,22.00
2019-03-30T22:40:55.119Z,20.77
2019-03-30T22:43:23.313Z,20.80
2019-03-30T22:45:51.530Z,18.53
2019-03-30T22:48:19.731Z,20.37
2019-03-30T22:50:47.947Z,19.57
2019-03-30T22:53:16.161Z,19.50
2019-03-30T22:55:44.375Z,19.93
2019-03-30T22:58:12.581Z,19.10
2019-03-30T23:00:42.432Z,19.27
2019-03-30T23:03:11.119Z,18.90
2019-03-30T23:05:39.321Z,18.60
2019-03-30T23:08:07.538Z,17.60
2019-03-30T23:10:35.750Z,18.03
2019-03-30T23:13:03.962Z,18.50
2019-03-30T23:15:32.168Z,17.17
2019-03-30T23:18:00.372Z,17.33
2019-03-30T23:20:28.588Z,18.73
2019-03-30T23:22:56.787Z,18.20
2019-03-30T23:25:25.004Z,18.40
2019-03-30T23:27:53.213Z,18.43
2019-03-30T23:30:21.430Z,19.33
2019-03-30T23:32:49.643Z,18.47
2019-03-30T23:35:18.097Z,17.83
2019-03-30T23:37:46.298Z,19.33
2019-03-30T23:40:14.500Z,18.73
2019-03-30T23:42:42.723Z,18.53
2019-03-30T23:45:12.503Z,18.83
2019-03-30T23:47:40.724Z,17.67
2019-03-30T23:50:08.927Z,18.73
2019-03-30T23:52:37.147Z,16.63
2019-03-30T23:55:06.982Z,18.00
2019-03-30T23:57:35.203Z,19.23
